createdAt,value
2023-04-15T00:00:50.413Z,74.9025
2023-04-15T00:01:51.118Z,74.4458
2023-04-15T00:02:52.215Z,74.2545
2023-04-15T00:03:53.401Z,75.0133
2023-04-15T00:04:53.374Z,74.9062
2023-04-15T00:05:54.310Z,74.6251
2023-04-15T00:06:55.022Z,74.6930
2023-04-15T00:07:55.460Z,75.1880
2023-04-15T00:08:56.122Z,74.9006
2023-04-15T00:09:56.625Z,74.9495
2023-04-15T00:10:57.217Z,75.1506
2023-04-15T00:11:57.851Z,75.5416
2023-04-15T00:12:58.424Z,75.3134
2023-04-15T00:13:59.129Z,75.2445
2023-04-15T00:14:59.833Z,75.4696
2023-04-15T00:16:00.489Z,75.6941
2023-04-15T00:17:01.574Z,76.0633
2023-04-15T00:18:02.402Z,76.1333
2023-04-15T00:19:03.297Z,76.3551
2023-04-15T00:20:04.213Z,76.1196
2023-04-15T00:21:04.689Z,75.9585
2023-04-15T00:22:05.365Z,75.8863
2023-04-15T00:23:06.103Z,76.0852
2023-04-15T00:24:06.603Z,76.0497
2023-04-15T00:25:07.451Z,76.1119
2023-04-15T00:26:08.432Z,76.0860
2023-04-15T00:27:09.080Z,75.7740
2023-04-15T00:28:09.979Z,75.8369
2023-04-15T00:29:10.859Z,75.8757
2023-04-15T00:30:11.408Z,76.0295
2023-04-15T00:31:12.724Z,76.1429
2023-04-15T00:32:13.379Z,76.6044
2023-04-15T00:33:14.113Z,76.6358
2023-04-15T00:34:14.723Z,76.9711
2023-04-15T00:35:15.206Z,77.2679
2023-04-15T00:36:16.003Z,77.6132
2023-04-15T00:37:16.497Z,77.7341
2023-04-15T00:38:17.114Z,77.7633
2023-04-15T00:39:17.894Z,78.0960
2023-04-15T00:40:18.521Z,78.3110
2023-04-15T00:41:19.313Z,79.0883
2023-04-15T00:42:19.997Z,79.3758
2023-04-15T00:43:20.583Z,79.1924
2023-04-15T00:44:21.197Z,79.6201
2023-04-15T00:45:21.691Z,79.9335
2023-04-15T00:46:22.840Z,80.0153
2023-04-15T00:47:23.613Z,80.0419
2023-04-15T00:48:24.412Z,80.1075
2023-04-15T00:49:25.170Z,80.1553
2023-04-15T00:50:25.842Z,80.2283
2023-04-15T00:51:26.523Z,80.1824
2023-04-15T00:52:27.291Z,80.0782
2023-04-15T00:53:27.885Z,80.0411
2023-04-15T00:54:28.658Z,80.0577
2023-04-15T00:55:29.291Z,79.9455
2023-04-15T00:56:29.870Z,79.8421
2023-04-15T00:57:30.749Z,79.8897
2023-04-15T00:58:31.348Z,79.8905
2023-04-15T00:59:32.126Z,79.6518
2023-04-15T01:00:32.656Z,79.5673
2023-04-15T01:01:33.288Z,79.4716
2023-04-15T01:02:33.748Z,79.5471
2023-04-15T01:03:35.364Z,79.5398
2023-04-15T01:04:35.348Z,79.5176
2023-04-15T01:05:36.398Z,79.5810
2023-04-15T01:06:37.019Z,79.5455
2023-04-15T01:07:37.959Z,79.4428
2023-04-15T01:08:39.037Z,79.4591
2023-04-15T01:09:39.639Z,79.1879
2023-04-15T01:10:40.621Z,78.1370
2023-04-15T01:11:41.230Z,77.4317
2023-04-15T01:12:41.952Z,76.9160
2023-04-15T01:13:42.726Z,76.8791
2023-04-15T01:14:43.626Z,76.5547
2023-04-15T01:15:44.328Z,76.3747
2023-04-15T01:16:45.510Z,76.7359
2023-04-15T01:17:46.167Z,76.2260
2023-04-15T01:18:46.188Z,75.8265
2023-04-15T01:19:46.323Z,75.5551
2023-04-15T01:20:47.099Z,75.0610
2023-04-15T01:21:47.772Z,75.0676
2023-04-15T01:22:48.271Z,74.9188
2023-04-15T01:23:48.916Z,74.7973
2023-04-15T01:24:49.670Z,74.4150
2023-04-15T01:25:50.174Z,74.3265
2023-04-15T01:26:51.055Z,74.0050
2023-04-15T01:27:52.036Z,74.3702
2023-04-15T01:28:52.639Z,75.1114
2023-04-15T01:29:53.375Z,75.3336
2023-04-15T01:30:53.997Z,75.7104
2023-04-15T01:31:55.066Z,75.7884
2023-04-15T01:32:55.590Z,75.4734
2023-04-15T01:33:56.258Z,75.3543
2023-04-15T01:34:57.370Z,75.3515
2023-04-15T01:35:58.188Z,75.3558
2023-04-15T01:36:58.824Z,75.4134
2023-04-15T01:37:59.663Z,75.4682
2023-04-15T01:39:00.347Z,75.5561
2023-04-15T01:40:00.542Z,76.1550
2023-04-15T01:41:01.261Z,76.6470
2023-04-15T01:42:01.930Z,77.1143
2023-04-15T01:43:02.762Z,76.9928
2023-04-15T01:44:03.528Z,76.9726
2023-04-15T01:45:04.079Z,76.8849
2023-04-15T01:46:04.805Z,76.7665
2023-04-15T01:47:06.128Z,76.5333
2023-04-15T01:48:07.192Z,76.4900
2023-04-15T01:49:08.486Z,76.3791
2023-04-15T01:50:09.114Z,76.2750
2023-04-15T01:51:09.814Z,76.3579
2023-04-15T01:52:10.532Z,76.4149
2023-04-15T01:53:11.423Z,76.6625
2023-04-15T01:54:11.899Z,77.5247
2023-04-15T01:55:12.544Z,76.8849
2023-04-15T01:56:14.717Z,76.7265
2023-04-15T01:57:13.651Z,76.5010
2023-04-15T01:58:14.504Z,76.8147
2023-04-15T01:59:14.970Z,76.8734
2023-04-15T02:00:15.668Z,76.3837
2023-04-15T02:01:16.773Z,76.1887
2023-04-15T02:02:17.941Z,75.9682
2023-04-15T02:03:18.479Z,76.9843
2023-04-15T02:04:19.449Z,77.3522
2023-04-15T02:05:20.135Z,77.2246
2023-04-15T02:06:20.799Z,76.8631
2023-04-15T02:07:21.288Z,77.1171
2023-04-15T02:08:21.952Z,77.2616
2023-04-15T02:09:23.049Z,77.7482
2023-04-15T02:10:23.517Z,77.4400
2023-04-15T02:11:24.127Z,77.0526
2023-04-15T02:12:24.546Z,77.0795
2023-04-15T02:13:25.165Z,77.0356
2023-04-15T02:14:26.087Z,77.2166
2023-04-15T02:15:26.602Z,77.4882
2023-04-15T02:16:27.596Z,77.4165
2023-04-15T02:17:28.721Z,77.6455
2023-04-15T02:18:29.599Z,77.8574
2023-04-15T02:19:30.452Z,77.7637
2023-04-15T02:20:31.178Z,77.9951
2023-04-15T02:21:31.819Z,78.0745
2023-04-15T02:22:32.765Z,78.0067
2023-04-15T02:23:33.208Z,77.9757
2023-04-15T02:24:33.937Z,78.1066
2023-04-15T02:25:34.559Z,78.3193
2023-04-15T02:26:34.870Z,78.4999
2023-04-15T02:27:35.585Z,78.7599
2023-04-15T02:28:36.091Z,78.7036
2023-04-15T02:29:36.868Z,79.3681
2023-04-15T02:30:37.679Z,79.5984
2023-04-15T02:31:38.206Z,79.9776
2023-04-15T02:32:39.220Z,79.6005
2023-04-15T02:33:40.069Z,78.3974
2023-04-15T02:34:40.600Z,78.0498
2023-04-15T02:35:41.498Z,77.7309
2023-04-15T02:36:41.887Z,77.4765
2023-04-15T02:37:42.672Z,77.3799
2023-04-15T02:38:43.339Z,77.7776
2023-04-15T02:39:43.865Z,77.3325
2023-04-15T02:40:44.669Z,77.5624
2023-04-15T02:41:45.398Z,77.4702
2023-04-15T02:42:45.948Z,78.0558
2023-04-15T02:43:46.624Z,78.4162
2023-04-15T02:44:47.131Z,78.4972
2023-04-15T02:45:47.867Z,78.5042
2023-04-15T02:46:48.912Z,78.0106
2023-04-15T02:47:49.519Z,77.6899
2023-04-15T02:48:50.185Z,78.0827
2023-04-15T02:49:50.977Z,77.9461
2023-04-15T02:50:52.007Z,77.9258
2023-04-15T02:51:51.863Z,77.6219
2023-04-15T02:52:52.334Z,78.0275
2023-04-15T02:53:52.981Z,77.8540
2023-04-15T02:54:53.762Z,77.9263
2023-04-15T02:55:54.467Z,78.1032
2023-04-15T02:56:55.278Z,78.0251
2023-04-15T02:57:56.256Z,77.7872
2023-04-15T02:58:56.703Z,77.8730
2023-04-15T02:59:57.670Z,77.9455
2023-04-15T03:00:58.289Z,77.5254
2023-04-15T03:01:59.419Z,77.4742
2023-04-15T03:02:59.633Z,77.4607
2023-04-15T03:04:00.938Z,77.4079
2023-04-15T03:05:00.991Z,77.9365
2023-04-15T03:06:01.519Z,78.5183
2023-04-15T03:07:02.046Z,78.5330
2023-04-15T03:08:03.397Z,79.0966
2023-04-15T03:10:03.656Z,79.2712
2023-04-15T03:11:04.163Z,79.5209
2023-04-15T03:12:05.081Z,78.9424
2023-04-15T03:13:05.434Z,78.8923
2023-04-15T03:14:06.182Z,78.7035
2023-04-15T03:15:06.642Z,78.9929
2023-04-15T03:16:07.677Z,78.9742
2023-04-15T03:17:08.435Z,78.9587
2023-04-15T03:18:09.139Z,79.1718
2023-04-15T03:19:10.438Z,79.2545
2023-04-15T03:20:11.405Z,79.5435
2023-04-15T03:21:11.934Z,79.5923
2023-04-15T03:22:12.566Z,79.6012
2023-04-15T03:23:13.198Z,79.0377
2023-04-15T03:24:13.673Z,78.6705
2023-04-15T03:25:14.401Z,78.7203
2023-04-15T03:26:15.182Z,79.0191
2023-04-15T03:27:15.603Z,79.5433
2023-04-15T03:28:16.360Z,79.7117
2023-04-15T03:29:16.737Z,79.7671
2023-04-15T03:30:17.463Z,79.4781
2023-04-15T03:31:18.151Z,79.1715
2023-04-15T03:32:18.989Z,79.0464
2023-04-15T03:33:19.926Z,78.7621
2023-04-15T03:34:20.608Z,78.7080
2023-04-15T03:35:21.210Z,78.7559
2023-04-15T03:36:21.760Z,78.6623
2023-04-15T03:37:22.320Z,78.4874
2023-04-15T03:38:22.818Z,78.5275
2023-04-15T03:39:24.062Z,78.3421
2023-04-15T03:40:24.565Z,78.5523
2023-04-15T03:41:25.243Z,78.6986
2023-04-15T03:42:25.915Z,79.0951
2023-04-15T03:43:26.922Z,79.1465
2023-04-15T03:44:27.633Z,78.9437
2023-04-15T03:45:28.088Z,79.0504
2023-04-15T03:46:29.244Z,79.2695
2023-04-15T03:47:30.018Z,79.4981
2023-04-15T03:48:30.580Z,79.3220
2023-04-15T03:49:31.828Z,79.0797
2023-04-15T03:50:32.397Z,78.9337
2023-04-15T03:51:33.042Z,78.8593
2023-04-15T03:52:33.722Z,78.8357
2023-04-15T03:53:34.473Z,79.0112
2023-04-15T03:54:35.040Z,78.9949
2023-04-15T03:55:35.552Z,79.2007
2023-04-15T03:56:35.992Z,78.5985
2023-04-15T03:57:36.640Z,78.7416
2023-04-15T03:58:37.479Z,78.6001
2023-04-15T03:59:38.554Z,78.7040
2023-04-15T04:00:39.163Z,79.0426
2023-04-15T04:01:39.848Z,79.1829
2023-04-15T04:02:40.227Z,79.2802
2023-04-15T04:03:41.035Z,79.0469
2023-04-15T04:04:41.546Z,79.0055
2023-04-15T04:05:42.288Z,79.2357
2023-04-15T04:06:43.044Z,79.3357
2023-04-15T04:07:44.018Z,79.3757
2023-04-15T04:08:44.544Z,79.4558
2023-04-15T04:09:47.154Z,79.4246
2023-04-15T04:10:46.793Z,79.6264
2023-04-15T04:11:47.389Z,79.4633
2023-04-15T04:12:48.051Z,79.5810
2023-04-15T04:13:48.489Z,79.9596
2023-04-15T04:14:49.152Z,79.8653
2023-04-15T04:15:49.941Z,79.7291
2023-04-15T04:16:50.080Z,79.7790
2023-04-15T04:17:51.105Z,80.2150
2023-04-15T04:18:51.608Z,79.6944
2023-04-15T04:19:52.307Z,79.5141
2023-04-15T04:20:53.031Z,79.7752
2023-04-15T04:21:53.528Z,79.9342
2023-04-15T04:22:54.189Z,79.8114
2023-04-15T04:23:54.866Z,80.0659
2023-04-15T04:24:55.254Z,80.0191
2023-04-15T04:25:55.882Z,80.1202
2023-04-15T04:26:56.527Z,79.9088
2023-04-15T04:27:57.064Z,80.3626
2023-04-15T04:28:57.719Z,80.5221
2023-04-15T04:29:58.173Z,80.2857
2023-04-15T04:30:58.665Z,80.2231
2023-04-15T04:31:59.650Z,80.2584
2023-04-15T04:33:00.505Z,80.1156
2023-04-15T04:34:01.104Z,79.5210
2023-04-15T04:35:01.555Z,79.3289
2023-04-15T04:36:02.378Z,78.9430
2023-04-15T04:37:02.977Z,78.6088
2023-04-15T04:38:03.518Z,78.1245
2023-04-15T04:39:04.483Z,78.0985
2023-04-15T04:40:05.178Z,78.0546
2023-04-15T04:41:05.674Z,78.1748
2023-04-15T04:42:06.249Z,78.0648
2023-04-15T04:43:06.835Z,77.9262
2023-04-15T04:44:07.441Z,77.0793
2023-04-15T04:45:08.222Z,77.3763
2023-04-15T04:47:09.554Z,76.0193
2023-04-15T04:48:10.421Z,76.4333
2023-04-15T04:49:11.397Z,75.9617
2023-04-15T04:50:12.085Z,76.2355
2023-04-15T04:51:12.783Z,76.3900
2023-04-15T04:52:13.350Z,76.6235
2023-04-15T04:53:14.036Z,76.7067
2023-04-15T04:54:14.871Z,76.3400
2023-04-15T04:55:15.800Z,76.5416
2023-04-15T04:56:16.383Z,76.3865
2023-04-15T04:57:16.850Z,76.8880
2023-04-15T04:58:17.530Z,77.0181
2023-04-15T04:59:19.918Z,76.7161
2023-04-15T05:00:20.469Z,76.7220
2023-04-15T05:01:21.277Z,76.5938
2023-04-15T05:02:21.837Z,76.5187
2023-04-15T05:03:22.071Z,76.4723
2023-04-15T05:04:22.037Z,77.0975
2023-04-15T05:05:22.487Z,76.8139
2023-04-15T05:06:23.315Z,76.8943
2023-04-15T05:07:23.995Z,76.7482
2023-04-15T05:08:24.548Z,76.8751
2023-04-15T05:09:25.788Z,77.0660
2023-04-15T05:10:26.436Z,76.8409
2023-04-15T05:11:26.884Z,76.8269
2023-04-15T05:12:27.720Z,77.4292
2023-04-15T05:13:28.126Z,77.3661
2023-04-15T05:14:29.217Z,77.5392
2023-04-15T05:15:29.875Z,77.3005
2023-04-15T05:16:30.529Z,77.5365
2023-04-15T05:17:31.475Z,77.7763
2023-04-15T05:18:32.145Z,77.7376
2023-04-15T05:19:33.198Z,77.4413
2023-04-15T05:20:33.874Z,77.5085
2023-04-15T05:21:34.437Z,78.1394
2023-04-15T05:22:34.922Z,78.4987
2023-04-15T05:23:35.819Z,78.6472
2023-04-15T05:24:36.286Z,78.8316
2023-04-15T05:25:36.418Z,78.8012
2023-04-15T05:26:37.042Z,78.3737
2023-04-15T05:27:37.647Z,77.9764
2023-04-15T05:28:38.517Z,77.6871
2023-04-15T05:29:39.307Z,77.4022
2023-04-15T05:30:39.844Z,77.3609
2023-04-15T05:31:40.740Z,77.1407
2023-04-15T05:32:41.839Z,76.7584
2023-04-15T05:33:42.425Z,77.3700
2023-04-15T05:34:43.267Z,76.9189
2023-04-15T05:35:43.736Z,77.1477
2023-04-15T05:36:44.352Z,77.1716
2023-04-15T05:37:45.077Z,77.6524
2023-04-15T05:38:45.543Z,77.5906
2023-04-15T05:39:46.910Z,76.9131
2023-04-15T05:40:46.603Z,77.0982
2023-04-15T05:41:47.295Z,76.2206
2023-04-15T05:42:47.990Z,76.2752
2023-04-15T05:43:48.436Z,76.3256
2023-04-15T05:44:49.293Z,76.0812
2023-04-15T05:45:50.209Z,76.1225
2023-04-15T05:46:50.759Z,76.3427
2023-04-15T05:47:51.616Z,76.4431
2023-04-15T05:48:53.396Z,76.3047
2023-04-15T05:49:53.361Z,76.2960
2023-04-15T05:50:54.099Z,76.5086
2023-04-15T05:51:54.714Z,75.6393
2023-04-15T05:52:55.412Z,75.3357
2023-04-15T05:53:56.184Z,75.4785
2023-04-15T05:54:56.745Z,75.6496
2023-04-15T05:55:57.487Z,75.9772
2023-04-15T05:56:58.400Z,75.8625
2023-04-15T05:57:58.953Z,75.4355
2023-04-15T05:58:59.800Z,75.4908
2023-04-15T06:00:00.567Z,75.4982
2023-04-15T06:01:01.085Z,74.7130
2023-04-15T06:02:01.852Z,74.5290
2023-04-15T06:03:03.077Z,75.0446
2023-04-15T06:04:03.688Z,74.4694
2023-04-15T06:05:03.792Z,74.6323
2023-04-15T06:06:04.413Z,74.5714
2023-04-15T06:07:05.148Z,74.3695
2023-04-15T06:08:05.842Z,74.7756
2023-04-15T06:09:06.019Z,74.8066
2023-04-15T06:10:06.854Z,74.5117
2023-04-15T06:11:07.335Z,74.1702
2023-04-15T06:12:08.176Z,74.7338
2023-04-15T06:13:08.808Z,74.9155
2023-04-15T06:14:09.373Z,74.5050
2023-04-15T06:15:10.204Z,74.6312
2023-04-15T06:16:11.509Z,74.7639
2023-04-15T06:17:12.392Z,74.9970
2023-04-15T06:18:13.357Z,75.2719
2023-04-15T06:19:15.142Z,74.5731
2023-04-15T06:20:14.482Z,74.1541
2023-04-15T06:21:15.487Z,74.3503
2023-04-15T06:22:16.017Z,74.1984
2023-04-15T06:23:16.870Z,74.2505
2023-04-15T06:24:17.560Z,74.1186
2023-04-15T06:25:18.201Z,74.2175
2023-04-15T06:26:18.911Z,73.6770
2023-04-15T06:27:19.435Z,72.8013
2023-04-15T06:28:19.971Z,72.6068
2023-04-15T06:29:20.907Z,72.5458
2023-04-15T06:30:23.496Z,73.1853
2023-04-15T06:31:22.671Z,72.8009
2023-04-15T06:32:23.730Z,72.9239
2023-04-15T06:33:24.578Z,72.4899
2023-04-15T06:34:25.778Z,71.9728
2023-04-15T06:35:26.815Z,71.4018
2023-04-15T06:36:27.616Z,71.6044
2023-04-15T06:37:28.395Z,71.5407
2023-04-15T06:38:29.460Z,71.8238
2023-04-15T06:39:29.953Z,71.1804
2023-04-15T06:40:30.827Z,71.8779
2023-04-15T06:41:31.440Z,70.7423
2023-04-15T06:42:32.155Z,71.4153
2023-04-15T06:43:32.773Z,71.4656
2023-04-15T06:44:34.029Z,70.4700
2023-04-15T06:45:33.678Z,69.2650
2023-04-15T06:46:34.657Z,69.6036
2023-04-15T06:47:35.465Z,70.1269
2023-04-15T06:48:36.143Z,70.4557
2023-04-15T06:49:36.727Z,70.7775
2023-04-15T06:50:37.443Z,71.1880
2023-04-15T06:51:37.922Z,71.7539
2023-04-15T06:52:38.834Z,71.3085
2023-04-15T06:53:39.579Z,71.1545
2023-04-15T06:54:40.146Z,71.5288
2023-04-15T06:55:41.049Z,70.3380
2023-04-15T06:56:41.873Z,70.0918
2023-04-15T06:57:42.481Z,70.9840
2023-04-15T06:58:43.279Z,70.9511
2023-04-15T06:59:44.335Z,70.4455
2023-04-15T07:00:44.948Z,70.8686
2023-04-15T07:01:46.009Z,71.4779
2023-04-15T07:02:46.121Z,71.3705
2023-04-15T07:03:46.966Z,70.9288
2023-04-15T07:04:47.912Z,70.9042
2023-04-15T07:05:48.461Z,70.8312
2023-04-15T07:06:49.320Z,71.0572
2023-04-15T07:07:49.995Z,71.3641
2023-04-15T07:08:50.738Z,71.0931
2023-04-15T07:09:51.864Z,70.9097
2023-04-15T07:10:52.794Z,70.3865
2023-04-15T07:11:53.781Z,70.5367
2023-04-15T07:12:54.988Z,70.8619
2023-04-15T07:13:55.807Z,70.3412
2023-04-15T07:14:56.686Z,70.4631
2023-04-15T07:15:56.878Z,70.3805
2023-04-15T07:16:58.165Z,70.9721
2023-04-15T07:17:59.805Z,70.3310
2023-04-15T07:19:01.331Z,70.6229
2023-04-15T07:21:01.471Z,71.1216
2023-04-15T07:22:02.368Z,71.2119
2023-04-15T07:23:03.108Z,71.0987
2023-04-15T07:24:03.241Z,71.4281
2023-04-15T07:25:04.262Z,72.0090
2023-04-15T07:26:04.452Z,71.9559
2023-04-15T07:27:05.525Z,72.4575
2023-04-15T07:28:06.289Z,72.5357
2023-04-15T07:29:07.817Z,72.6617
2023-04-15T07:30:08.177Z,73.2561
2023-04-15T07:31:08.997Z,72.9644
2023-04-15T07:32:10.226Z,72.8345
2023-04-15T07:33:10.237Z,73.3174
2023-04-15T07:34:10.980Z,73.3295
2023-04-15T07:35:12.044Z,72.8118
2023-04-15T07:36:12.873Z,73.0602
2023-04-15T07:37:13.915Z,73.3598
2023-04-15T07:38:14.923Z,73.5588
2023-04-15T07:39:15.713Z,73.7699
2023-04-15T07:40:16.852Z,74.0466
2023-04-15T07:41:17.601Z,74.1376
2023-04-15T07:42:18.306Z,74.0384
2023-04-15T07:43:19.014Z,74.2409
2023-04-15T07:44:20.031Z,74.7863
2023-04-15T07:45:20.703Z,74.7723
2023-04-15T07:46:21.023Z,74.8683
2023-04-15T07:47:21.289Z,74.9919
2023-04-15T07:48:21.322Z,75.0986
2023-04-15T07:49:22.441Z,74.9971
2023-04-15T07:50:23.202Z,74.2421
2023-04-15T07:51:24.343Z,74.6046
2023-04-15T07:52:25.200Z,74.9281
2023-04-15T07:53:25.980Z,75.2010
2023-04-15T07:54:26.831Z,74.9604
2023-04-15T07:55:28.428Z,75.1428
2023-04-15T07:56:29.003Z,75.0099
2023-04-15T07:57:29.820Z,75.2929
2023-04-15T07:58:30.876Z,74.8295
2023-04-15T07:59:31.884Z,74.8864
2023-04-15T08:00:33.093Z,74.8552
2023-04-15T08:01:33.960Z,74.9775
2023-04-15T08:02:34.269Z,74.6726
2023-04-15T08:03:34.623Z,74.7121
2023-04-15T08:04:35.886Z,74.2985
2023-04-15T08:05:36.694Z,74.1188
2023-04-15T08:06:37.517Z,74.3633
2023-04-15T08:07:38.124Z,74.6334
2023-04-15T08:08:38.920Z,74.4566
2023-04-15T08:09:39.787Z,73.9464
2023-04-15T08:10:40.430Z,73.8875
2023-04-15T08:11:41.440Z,73.8963
2023-04-15T08:12:42.824Z,74.5147
2023-04-15T08:13:45.027Z,73.7061
2023-04-15T08:14:45.445Z,73.7121
2023-04-15T08:15:46.545Z,73.3305
2023-04-15T08:16:47.818Z,73.5634
2023-04-15T08:17:49.085Z,73.1686
2023-04-15T08:18:50.056Z,72.7089
2023-04-15T08:19:51.225Z,72.8299
2023-04-15T08:20:51.872Z,72.9261
2023-04-15T08:21:52.728Z,73.0691
2023-04-15T08:22:53.901Z,72.3881
2023-04-15T08:23:54.886Z,72.3062
2023-04-15T08:24:55.782Z,72.0543
2023-04-15T08:25:56.059Z,72.5336
2023-04-15T08:26:56.951Z,72.0984
2023-04-15T08:27:57.862Z,71.7634
2023-04-15T08:28:58.690Z,71.3422
2023-04-15T08:29:59.023Z,71.7627
2023-04-15T08:30:59.551Z,71.6724
2023-04-15T08:32:00.785Z,70.2950
2023-04-15T08:33:01.672Z,70.3429
2023-04-15T08:34:02.548Z,69.4812
2023-04-15T08:35:03.344Z,69.2274
2023-04-15T08:36:04.192Z,69.5403
2023-04-15T08:37:05.096Z,70.0308
2023-04-15T08:38:06.018Z,70.2381
2023-04-15T08:39:06.830Z,70.2467
2023-04-15T08:40:07.670Z,70.1857
2023-04-15T08:41:08.426Z,70.0842
2023-04-15T08:42:08.511Z,70.1730
2023-04-15T08:43:09.053Z,69.8832
2023-04-15T08:44:09.550Z,69.4601
2023-04-15T08:45:10.746Z,69.5981
2023-04-15T08:46:11.916Z,69.7859
2023-04-15T08:47:13.086Z,70.2923
2023-04-15T08:48:13.619Z,70.3581
2023-04-15T08:49:14.918Z,69.9547
2023-04-15T08:50:16.090Z,70.5944
2023-04-15T08:52:16.493Z,70.5283
2023-04-15T08:53:17.478Z,69.8702
2023-04-15T08:54:18.295Z,68.7612
2023-04-15T08:55:18.364Z,68.4363
2023-04-15T08:56:18.748Z,68.3240
2023-04-15T08:57:19.206Z,68.2721
2023-04-15T08:58:19.279Z,67.9181
2023-04-15T08:59:20.433Z,67.8662
2023-04-15T09:00:20.830Z,68.1692
2023-04-15T09:01:21.898Z,69.8070
2023-04-15T09:02:23.189Z,71.1742
2023-04-15T09:03:23.894Z,72.5005
2023-04-15T09:04:23.761Z,73.7134
2023-04-15T09:05:24.755Z,74.1034
2023-04-15T09:07:25.652Z,75.0155
2023-04-15T09:08:26.794Z,74.5397
2023-04-15T09:09:27.656Z,74.5217
2023-04-15T09:10:28.707Z,76.1605
2023-04-15T09:11:29.581Z,76.5019
2023-04-15T09:12:30.491Z,77.0404
2023-04-15T09:13:30.734Z,76.1623
2023-04-15T09:14:31.547Z,76.4643
2023-04-15T09:15:32.710Z,76.9098
2023-04-15T09:16:33.919Z,78.4073
2023-04-15T09:17:35.035Z,78.4900
2023-04-15T09:18:35.442Z,77.8105
2023-04-15T09:19:35.392Z,79.0291
2023-04-15T09:20:36.160Z,77.5463
2023-04-15T09:21:37.184Z,77.8292
2023-04-15T09:22:37.474Z,78.4620
2023-04-15T09:24:38.031Z,76.6711
2023-04-15T09:25:38.088Z,77.1749
2023-04-15T09:26:38.955Z,77.5912
2023-04-15T09:27:39.443Z,76.5312
2023-04-15T09:28:39.647Z,76.1830
2023-04-15T09:29:40.781Z,76.9700
2023-04-15T09:30:41.649Z,76.0092
2023-04-15T09:31:41.846Z,73.6968
2023-04-15T09:32:43.293Z,74.3942
2023-04-15T09:34:43.144Z,72.3709
2023-04-15T09:35:44.028Z,71.7219
2023-04-15T09:36:44.827Z,71.5933
2023-04-15T09:37:45.616Z,70.2409
2023-04-15T09:38:46.340Z,70.6161
2023-04-15T09:39:47.151Z,71.8406
2023-04-15T09:40:48.240Z,74.6363
2023-04-15T09:41:49.669Z,75.8799
2023-04-15T09:42:52.441Z,74.3484
2023-04-15T09:43:53.540Z,73.6783
2023-04-15T09:44:53.579Z,73.0331
2023-04-15T09:45:54.533Z,74.4336
2023-04-15T09:46:55.254Z,75.4172
2023-04-15T09:47:57.084Z,73.5193
2023-04-15T09:48:56.909Z,73.6872
2023-04-15T09:49:57.867Z,72.6618
2023-04-15T09:50:57.798Z,72.7203
2023-04-15T09:52:04.469Z,72.2784
2023-04-15T09:52:58.731Z,71.2896
2023-04-15T09:53:59.687Z,68.7951
2023-04-15T09:54:59.627Z,66.4482
2023-04-15T09:56:00.152Z,67.2794
2023-04-15T09:57:01.008Z,67.3555
2023-04-15T09:58:01.758Z,67.0383
2023-04-15T09:59:02.782Z,66.3798
2023-04-15T10:00:03.726Z,65.6621
2023-04-15T10:01:04.905Z,66.7972
2023-04-15T10:02:06.061Z,67.6356
2023-04-15T10:03:06.921Z,65.0720
2023-04-15T10:04:07.459Z,65.7878
2023-04-15T10:05:08.219Z,66.9738
2023-04-15T10:06:08.355Z,67.4170
2023-04-15T10:07:09.479Z,69.2054
2023-04-15T10:08:10.573Z,69.3724
2023-04-15T10:09:11.736Z,68.5365
2023-04-15T10:10:12.752Z,69.2712
2023-04-15T10:11:13.890Z,69.4391
2023-04-15T10:12:15.036Z,70.2229
2023-04-15T10:13:15.834Z,70.1531
2023-04-15T10:14:16.859Z,71.9383
2023-04-15T10:15:17.898Z,70.6191
2023-04-15T10:16:18.695Z,72.7120
2023-04-15T10:17:19.823Z,72.7534
2023-04-15T10:18:20.864Z,72.9004
2023-04-15T10:19:21.720Z,73.3553
2023-04-15T10:20:22.668Z,73.3294
2023-04-15T10:21:23.327Z,73.7584
2023-04-15T10:22:24.433Z,73.5592
2023-04-15T10:23:24.695Z,73.4657
2023-04-15T10:24:25.366Z,72.3973
2023-04-15T10:25:26.571Z,73.8547
2023-04-15T10:26:27.151Z,72.4322
2023-04-15T10:27:27.935Z,72.8809
2023-04-15T10:28:28.700Z,71.6600
2023-04-15T10:29:29.958Z,72.1601
2023-04-15T10:30:31.177Z,71.4368
2023-04-15T10:31:32.468Z,72.1051
2023-04-15T10:32:33.428Z,71.8567
2023-04-15T10:33:34.501Z,70.4815
2023-04-15T10:34:34.714Z,71.2039
2023-04-15T10:35:35.332Z,71.1836
2023-04-15T10:36:36.394Z,70.7414
2023-04-15T10:37:37.060Z,70.6125
2023-04-15T10:38:37.874Z,70.9831
2023-04-15T10:39:39.008Z,71.1381
2023-04-15T10:40:39.585Z,71.7349
2023-04-15T10:41:40.264Z,70.7935
2023-04-15T10:43:51.208Z,69.2691
2023-04-15T10:44:51.408Z,70.1396
2023-04-15T10:45:52.562Z,70.4127
2023-04-15T10:46:53.108Z,69.5192
2023-04-15T10:47:54.452Z,68.6114
2023-04-15T10:48:55.220Z,69.9051
2023-04-15T10:49:56.111Z,70.1109
2023-04-15T10:50:57.069Z,69.8480
2023-04-15T10:51:57.679Z,71.6008
2023-04-15T10:52:57.689Z,75.0096
2023-04-15T10:53:58.787Z,75.1928
2023-04-15T10:54:59.511Z,75.0950
2023-04-15T10:56:00.300Z,74.3865
2023-04-15T10:57:00.929Z,75.1632
2023-04-15T10:58:01.576Z,73.1309
2023-04-15T10:59:02.532Z,72.9726
2023-04-15T11:00:03.764Z,73.1838
2023-04-15T11:01:04.532Z,72.6164
2023-04-15T11:02:04.717Z,73.0209
2023-04-15T11:03:05.356Z,72.6847
2023-04-15T11:04:07.818Z,72.9572
2023-04-15T11:05:08.831Z,73.6067
2023-04-15T11:06:08.726Z,74.0095
2023-04-15T11:07:09.750Z,74.5140
2023-04-15T11:08:10.801Z,73.5906
2023-04-15T11:09:12.474Z,73.4309
2023-04-15T11:11:13.340Z,72.3879
2023-04-15T11:12:13.789Z,72.0737
2023-04-15T11:13:20.036Z,71.2642
2023-04-15T11:14:20.805Z,71.7661
2023-04-15T11:15:21.774Z,71.4274
2023-04-15T11:16:22.910Z,70.8631
2023-04-15T11:17:23.316Z,70.6411
2023-04-15T11:18:23.578Z,71.4599
2023-04-15T11:19:24.694Z,72.0162
2023-04-15T11:20:24.590Z,72.6299
2023-04-15T11:21:41.620Z,72.6585
2023-04-15T11:22:42.788Z,74.1364
2023-04-15T11:23:43.011Z,74.6216
2023-04-15T11:24:43.349Z,74.7623
2023-04-15T11:25:44.252Z,75.1773
2023-04-15T11:26:44.082Z,75.6104
2023-04-15T11:27:44.848Z,75.9632
2023-04-15T11:28:45.611Z,76.3044
2023-04-15T11:29:46.644Z,76.6445
2023-04-15T11:30:47.369Z,76.1711
2023-04-15T11:31:48.384Z,76.4554
2023-04-15T11:32:49.644Z,76.7362
2023-04-15T11:33:50.863Z,76.4197
2023-04-15T11:34:51.662Z,76.2889
2023-04-15T11:35:52.245Z,76.2980
2023-04-15T11:36:53.471Z,76.3746
2023-04-15T11:37:54.212Z,76.1423
2023-04-15T11:38:55.043Z,75.7240
2023-04-15T11:39:55.903Z,75.2733
2023-04-15T11:40:57.270Z,75.5970
2023-04-15T11:41:58.022Z,75.9168
2023-04-15T11:42:58.228Z,75.6617
2023-04-15T11:43:59.296Z,75.9927
2023-04-15T11:44:59.871Z,75.0206
2023-04-15T11:46:01.010Z,75.1587
2023-04-15T11:47:02.044Z,75.7305
2023-04-15T11:48:03.089Z,74.9613
2023-04-15T11:49:03.705Z,75.0641
2023-04-15T11:50:04.556Z,75.0315
2023-04-15T11:51:05.221Z,75.7913
2023-04-15T11:52:05.854Z,76.0863
2023-04-15T11:53:08.384Z,75.8292
2023-04-15T11:54:06.711Z,75.6566
2023-04-15T11:55:07.277Z,76.0434
2023-04-15T11:56:07.914Z,76.3002
2023-04-15T11:57:08.703Z,76.5976
2023-04-15T11:58:09.493Z,74.9894
2023-04-15T11:59:10.184Z,74.3737
2023-04-15T12:00:10.933Z,74.1579
2023-04-15T12:01:11.431Z,73.4829
2023-04-15T12:02:12.218Z,73.6271
2023-04-15T12:03:13.584Z,74.3937
2023-04-15T12:04:14.466Z,73.4387
2023-04-15T12:05:15.785Z,73.4551
2023-04-15T12:06:16.805Z,72.6533
2023-04-15T12:07:17.611Z,72.0423
2023-04-15T12:08:18.202Z,71.5230
2023-04-15T12:09:18.882Z,72.2404
2023-04-15T12:10:19.966Z,71.6913
2023-04-15T12:11:20.656Z,70.4647
2023-04-15T12:12:20.889Z,70.4408
2023-04-15T12:13:21.079Z,70.1901
2023-04-15T12:14:21.378Z,69.4603
2023-04-15T12:15:22.150Z,70.7393
2023-04-15T12:16:22.941Z,71.5671
2023-04-15T12:17:23.347Z,70.7458
2023-04-15T12:18:23.736Z,70.6608
2023-04-15T12:19:24.095Z,70.9538
2023-04-15T12:20:25.312Z,71.2963
2023-04-15T12:21:25.430Z,70.8468
2023-04-15T12:22:26.042Z,70.2291
2023-04-15T12:23:26.105Z,69.3619
2023-04-15T12:24:26.851Z,69.3373